Batumi International Airport
UGSB : rendu visible

Aérodrome :











RETROUVEZ-NOUS SUR...

 
LOGIN :

S'inscrire | Disclaimer

   EN    FR    IT 

 









Légende :    VFR   VFR Marginal   IFR   IFR Intensif   IFR Très Intensif
Visi : 
Plafond : 
>= 8 km
>= 3000ft
5 à 8 km
1000 à 3000 ft
1500m à 5 km
500 à 1000 ft
800 à 1500m
200 à 500 ft
< 800m
< 200 ft
Symboles :   Orages  Brouillard  Fortes neiges  Fortes précipitations  Vent > 20 kt







- Altitude de l'aérodrome : 105 ft
- Code IATA : BUS


UGSB - Batumi International

DERNIER METAR :
  • 041630Z VRB01KT 9999 BKN024 21/18 Q1020 R13/CLRD70 NOSIG

METARs EXPIRÉS :
  • 041600Z 19004KT 150V220 9999 BKN029 22/18 Q1019 R13/CLRD70 NOSIG
  • 041530Z 16006KT 9999 BKN029 21/19 Q1019 R13/CLRD70 NOSIG
  • 041500Z 17004KT 9999 BKN030 22/19 Q1019 R13/CLRD70 NOSIG
  • 041430Z 19003KT 9999 BKN030 22/18 Q1019 R13/70D NOSIG
  • 041400Z 21005KT 9999 BKN030 22/18 Q1019 R13/CLRD70 NOSIG

TAF TAF UGSB
Valide du 04 à 12h jusqu'au 05 à 12h UTC


041100Z 0412/0512 VRB03KT 9999 SCT026 BKN040 TX24/0511Z TN19/0500Z
TEMPO 0412/0418 24010KT 5000 SHRA SCT018CB
TEMPO 0420/0505 13010KT
TEMPO 0507/0512 24010KT
FIR UGGG / Asie



MET'MAP, la Météo Aéronautique d'un coup d'oeil ! - Copyright ORBIFLY Décembre 2007 - Disclaimer

ORBIFLY MET'MAP TEAM :

Programmation & Développement : Alexandra Zaïnal
Conception & Développement : Baudouin d'Aumeries
Co-Programmation & Développement : Marc-Olivier Méhu
Soutien technique & logistique : Manuel Goepfert

Contact : metmap@orbifly.com




SOURCES & CREDITS :

   NOAA       Earth
Advisory